Swansea, California
Current Conditions -  °F | °C
As of 1:56 AM on Saturday 29 Nov 2014 (Local Time) from KBIH Reporting Station
Clear Clear  
Wind Chill:   Ceiling: Unl
Heat Index:   Visibility: 10mi
Dew Point: -14°   Wind: 3mph
Humidity: 27%   Direction: NA
Pressure: 29.83"   Gusts: NA
Location:  36.6126°N, 118.162°W
Report Text: KBIH 290956Z AUTO VRB03KT 10SM CLR 03/M14 A2983 RMK AO2 SLP079 T00331144
Loading
Personal Weather Stations






























Interactive Weather Map New forecast layout! Learn more

10-Day Weather Forecast

Advertisements
Track Severe Weather on mobile